createdAt,value
2023-03-15T00:00:29.832Z,8.10
2023-03-15T00:03:16.991Z,8.05
2023-03-15T00:05:47.566Z,8.05
2023-03-15T00:08:15.522Z,8.08
2023-03-15T00:10:45.979Z,8.10
2023-03-15T00:13:13.748Z,8.08
2023-03-15T00:15:51.328Z,8.13
2023-03-15T00:18:19.108Z,8.18
2023-03-15T00:20:48.405Z,8.16
2023-03-15T00:23:15.989Z,8.18
2023-03-15T00:25:46.710Z,8.15
2023-03-15T00:28:14.147Z,8.18
2023-03-15T00:30:41.227Z,8.19
2023-03-15T00:33:08.598Z,8.20
2023-03-15T00:35:41.983Z,8.17
2023-03-15T00:38:09.725Z,8.12
2023-03-15T00:40:37.495Z,8.09
2023-03-15T00:43:04.753Z,8.11
2023-03-15T00:45:31.652Z,8.07
2023-03-15T00:47:58.891Z,8.05
2023-03-15T00:50:26.270Z,8.06
2023-03-15T00:52:53.527Z,8.02
2023-03-15T00:55:21.851Z,7.94
2023-03-15T00:57:49.279Z,7.87
2023-03-15T01:00:20.277Z,7.87
2023-03-15T01:02:47.604Z,7.85
2023-03-15T01:05:14.758Z,7.59
2023-03-15T01:07:42.092Z,7.40
2023-03-15T01:10:10.984Z,7.22
2023-03-15T01:12:40.779Z,7.04
2023-03-15T01:15:12.005Z,6.66
2023-03-15T01:17:39.364Z,6.39
2023-03-15T01:20:07.013Z,6.22
2023-03-15T01:22:36.234Z,6.08
2023-03-15T01:25:03.399Z,5.95
2023-03-15T01:27:30.657Z,5.88
2023-03-15T01:29:57.623Z,5.76
2023-03-15T01:32:24.919Z,5.72
2023-03-15T01:34:51.877Z,5.61
2023-03-15T01:37:24.780Z,5.59
2023-03-15T01:39:52.067Z,5.55
2023-03-15T01:42:19.681Z,5.55
2023-03-15T01:45:00.183Z,5.46
2023-03-15T01:47:28.210Z,5.41
2023-03-15T01:50:15.499Z,5.39
2023-03-15T01:52:43.687Z,5.30
2023-03-15T01:55:19.603Z,5.29
2023-03-15T01:58:07.039Z,5.23
2023-03-15T02:00:37.264Z,5.20
2023-03-15T02:03:14.620Z,5.22
2023-03-15T02:05:46.480Z,5.22
2023-03-15T02:08:20.414Z,5.17
2023-03-15T02:10:50.799Z,5.15
2023-03-15T02:13:22.876Z,5.09
2023-03-15T02:15:50.388Z,5.06
2023-03-15T02:18:29.335Z,5.00
2023-03-15T02:21:00.359Z,4.94
2023-03-15T02:23:28.882Z,4.89
2023-03-15T02:26:01.782Z,4.83
2023-03-15T02:28:30.033Z,4.79
2023-03-15T02:30:59.874Z,4.86
2023-03-15T02:33:33.011Z,4.80
2023-03-15T02:36:09.036Z,4.81
2023-03-15T02:38:37.311Z,4.82
2023-03-15T02:41:04.752Z,4.84
2023-03-15T02:43:33.028Z,4.83
2023-03-15T02:46:00.621Z,4.83
2023-03-15T02:48:28.883Z,4.78
2023-03-15T02:50:59.126Z,4.73
2023-03-15T02:53:26.338Z,4.70
2023-03-15T02:55:53.216Z,4.65
2023-03-15T02:58:22.822Z,4.64
2023-03-15T03:00:49.842Z,4.62
2023-03-15T03:03:19.362Z,4.60
2023-03-15T03:05:46.235Z,4.61
2023-03-15T03:08:16.464Z,4.62
2023-03-15T03:10:43.891Z,4.57
2023-03-15T03:13:11.075Z,4.56
2023-03-15T03:15:39.610Z,4.59
2023-03-15T03:18:06.805Z,4.56
2023-03-15T03:20:33.778Z,4.58
2023-03-15T03:23:05.948Z,4.53
2023-03-15T03:25:33.581Z,4.53
2023-03-15T03:28:04.012Z,4.48
2023-03-15T03:30:31.570Z,4.49
2023-03-15T03:32:58.791Z,4.46
2023-03-15T03:35:25.811Z,4.44
2023-03-15T03:37:55.754Z,4.41
2023-03-15T03:40:31.863Z,4.38
2023-03-15T03:42:59.468Z,4.38
2023-03-15T03:45:26.504Z,4.42
2023-03-15T03:47:57.136Z,4.40
2023-03-15T03:50:24.270Z,4.38
2023-03-15T03:52:51.464Z,4.36
2023-03-15T03:55:25.679Z,4.32
2023-03-15T03:57:54.273Z,4.34
2023-03-15T04:00:39.499Z,4.33
2023-03-15T04:03:08.536Z,4.31
2023-03-15T04:05:37.641Z,4.23
2023-03-15T04:08:05.470Z,4.25
2023-03-15T04:10:37.333Z,4.27
2023-03-15T04:13:04.807Z,4.23
2023-03-15T04:15:31.811Z,4.18
2023-03-15T04:17:59.860Z,4.20
2023-03-15T04:20:34.686Z,4.18
2023-03-15T04:23:03.053Z,4.20
2023-03-15T04:25:49.433Z,4.17
2023-03-15T04:28:38.183Z,4.12
2023-03-15T04:31:27.224Z,4.15
2023-03-15T04:34:13.550Z,4.15
2023-03-15T04:36:58.798Z,4.10
2023-03-15T04:39:49.338Z,4.09
2023-03-15T04:42:35.199Z,4.11
2023-03-15T04:45:34.564Z,4.07
2023-03-15T04:48:21.170Z,4.07
2023-03-15T04:51:27.211Z,4.07
2023-03-15T04:54:09.339Z,4.02
2023-03-15T04:56:54.313Z,4.01
2023-03-15T04:59:35.301Z,3.96
2023-03-15T05:02:18.488Z,3.98
2023-03-15T05:05:06.429Z,3.99
2023-03-15T05:07:53.866Z,3.97
2023-03-15T05:10:50.268Z,3.93
2023-03-15T05:13:26.590Z,3.87
2023-03-15T05:16:19.494Z,3.89
2023-03-15T05:18:57.673Z,3.84
2023-03-15T05:21:45.105Z,3.84
2023-03-15T05:24:17.550Z,3.86
2023-03-15T05:27:03.780Z,3.84
2023-03-15T05:29:57.601Z,3.85
2023-03-15T05:32:44.671Z,3.87
2023-03-15T05:35:26.713Z,3.86
2023-03-15T05:38:14.573Z,3.89
2023-03-15T05:41:06.603Z,3.87
2023-03-15T05:43:53.718Z,3.90
2023-03-15T05:46:40.507Z,3.90
2023-03-15T05:49:26.049Z,3.91
2023-03-15T05:52:06.820Z,3.92
2023-03-15T05:54:38.063Z,3.87
2023-03-15T05:57:25.699Z,3.92
2023-03-15T05:59:55.529Z,3.93
2023-03-15T06:02:44.358Z,3.98
2023-03-15T06:05:29.942Z,3.97
2023-03-15T06:08:03.541Z,3.97
2023-03-15T06:10:31.649Z,3.97
2023-03-15T06:13:06.074Z,4.02
2023-03-15T06:15:33.199Z,4.00
2023-03-15T06:18:01.229Z,4.05
2023-03-15T06:20:28.760Z,4.08
2023-03-15T06:22:57.880Z,4.07
2023-03-15T06:25:35.681Z,4.14
2023-03-15T06:28:02.914Z,4.16
2023-03-15T06:30:29.975Z,4.22
2023-03-15T06:33:00.229Z,4.25
2023-03-15T06:35:27.209Z,4.35
2023-03-15T06:37:54.574Z,4.45
2023-03-15T06:40:21.973Z,4.56
2023-03-15T06:42:50.469Z,4.74
2023-03-15T06:45:19.312Z,4.80
2023-03-15T06:47:47.538Z,4.86
2023-03-15T06:50:15.925Z,4.93
2023-03-15T06:52:43.093Z,5.10
2023-03-15T06:55:18.160Z,5.13
2023-03-15T06:57:45.960Z,5.10
2023-03-15T07:00:13.123Z,5.21
2023-03-15T07:02:41.045Z,5.22
2023-03-15T07:05:08.481Z,5.17
2023-03-15T07:07:35.638Z,5.15
2023-03-15T07:10:02.646Z,5.09
2023-03-15T07:12:29.801Z,5.15
2023-03-15T07:14:56.695Z,5.08
2023-03-15T07:17:24.141Z,5.22
2023-03-15T07:19:56.493Z,5.24
2023-03-15T07:22:24.306Z,5.28
2023-03-15T07:24:51.570Z,5.39
2023-03-15T07:27:21.188Z,5.41
2023-03-15T07:29:48.784Z,5.44
2023-03-15T07:32:16.030Z,5.50
2023-03-15T07:34:43.160Z,5.56
2023-03-15T07:37:10.821Z,5.54
2023-03-15T07:39:37.734Z,5.49
2023-03-15T07:42:07.289Z,5.55
2023-03-15T07:44:40.531Z,5.58
2023-03-15T07:47:10.478Z,5.59
2023-03-15T07:49:37.295Z,5.73
2023-03-15T07:52:04.690Z,5.96
2023-03-15T07:54:32.129Z,6.15
2023-03-15T07:56:59.392Z,6.06
2023-03-15T07:59:26.312Z,6.21
2023-03-15T08:01:53.908Z,6.08
2023-03-15T08:04:23.039Z,6.16
2023-03-15T08:06:50.256Z,6.28
2023-03-15T08:09:17.262Z,6.59
2023-03-15T08:11:45.320Z,7.08
2023-03-15T08:14:15.048Z,7.18
2023-03-15T08:16:42.456Z,7.01
2023-03-15T08:19:10.364Z,6.89
2023-03-15T08:21:37.598Z,7.02
2023-03-15T08:24:04.703Z,7.18
2023-03-15T08:26:32.015Z,7.20
2023-03-15T08:28:59.265Z,7.79
2023-03-15T08:31:26.577Z,8.40
2023-03-15T08:33:53.578Z,7.91
2023-03-15T08:36:21.363Z,7.68
2023-03-15T08:38:48.502Z,8.52
2023-03-15T08:41:15.657Z,8.89
2023-03-15T08:43:42.538Z,8.94
2023-03-15T08:46:09.705Z,8.13
2023-03-15T08:48:36.921Z,8.21
2023-03-15T08:51:05.262Z,8.29
2023-03-15T08:53:32.681Z,8.35
2023-03-15T08:55:59.926Z,8.38
2023-03-15T08:58:26.976Z,7.79
2023-03-15T09:00:54.169Z,8.01
2023-03-15T09:03:22.652Z,8.50
2023-03-15T09:05:52.234Z,8.59
2023-03-15T09:08:21.535Z,8.65
2023-03-15T09:10:48.730Z,8.82
2023-03-15T09:13:15.652Z,9.13
2023-03-15T09:15:42.836Z,9.32
2023-03-15T09:18:09.877Z,9.33
2023-03-15T09:20:39.746Z,9.11
2023-03-15T09:23:06.752Z,9.13
2023-03-15T09:25:33.985Z,8.81
2023-03-15T09:28:00.904Z,8.97
2023-03-15T09:30:29.147Z,8.96
2023-03-15T09:32:56.147Z,8.80
2023-03-15T09:35:23.362Z,8.84
2023-03-15T09:37:51.129Z,8.67
2023-03-15T09:40:28.285Z,8.93
2023-03-15T09:42:55.965Z,8.88
2023-03-15T09:45:46.447Z,8.99
2023-03-15T09:48:17.816Z,8.60
2023-03-15T09:50:47.438Z,8.68
2023-03-15T09:53:37.395Z,8.88
2023-03-15T09:56:19.991Z,8.39
2023-03-15T09:58:47.557Z,8.73
2023-03-15T10:01:17.323Z,8.77
2023-03-15T10:03:51.513Z,8.84
2023-03-15T10:06:20.820Z,8.45
2023-03-15T10:08:47.748Z,8.28
2023-03-15T10:11:23.139Z,8.13
2023-03-15T10:14:24.864Z,8.19
2023-03-15T10:16:52.713Z,8.52
2023-03-15T10:19:19.649Z,8.73
2023-03-15T10:21:47.055Z,8.32
2023-03-15T10:24:24.455Z,8.47
2023-03-15T10:26:52.880Z,8.62
2023-03-15T10:29:23.148Z,8.81
2023-03-15T10:31:52.838Z,8.73
2023-03-15T10:34:19.922Z,9.10
2023-03-15T10:36:54.434Z,9.05
2023-03-15T10:39:22.174Z,9.34
2023-03-15T10:41:50.481Z,9.31
2023-03-15T10:44:20.681Z,9.24
2023-03-15T10:47:04.661Z,9.28
2023-03-15T10:49:35.880Z,8.97
2023-03-15T10:52:03.943Z,8.77
2023-03-15T10:54:32.347Z,8.90
2023-03-15T10:57:02.043Z,9.01
2023-03-15T10:59:30.559Z,9.50
2023-03-15T11:02:13.094Z,9.57
2023-03-15T11:04:43.897Z,9.59
2023-03-15T11:07:16.098Z,9.37
2023-03-15T11:09:44.744Z,9.45
2023-03-15T11:12:26.339Z,9.24
2023-03-15T11:14:57.051Z,9.70
2023-03-15T11:17:26.610Z,9.85
2023-03-15T11:20:10.342Z,9.69
2023-03-15T11:22:37.586Z,9.81
2023-03-15T11:25:04.643Z,9.59
2023-03-15T11:27:32.003Z,9.83
2023-03-15T11:30:01.849Z,9.73
2023-03-15T11:32:30.282Z,9.40
2023-03-15T11:35:03.470Z,9.39
2023-03-15T11:37:33.586Z,9.62
2023-03-15T11:40:16.092Z,9.34
2023-03-15T11:42:44.179Z,9.52
2023-03-15T11:45:17.984Z,9.32
2023-03-15T11:47:51.788Z,9.36
2023-03-15T11:50:19.885Z,9.43
2023-03-15T11:52:50.714Z,9.58
2023-03-15T11:55:28.063Z,9.21
2023-03-15T11:57:58.107Z,9.07
2023-03-15T12:00:44.981Z,9.19
2023-03-15T12:03:28.376Z,9.13
2023-03-15T12:06:04.612Z,8.96
2023-03-15T12:08:41.021Z,9.09
2023-03-15T12:11:31.002Z,8.99
2023-03-15T12:14:01.194Z,8.97
2023-03-15T12:16:30.297Z,8.91
2023-03-15T12:18:58.498Z,9.00
2023-03-15T12:21:31.401Z,9.13
2023-03-15T12:24:01.606Z,9.35
2023-03-15T12:26:31.631Z,9.59
2023-03-15T12:28:59.109Z,9.71
2023-03-15T12:31:26.773Z,9.52
2023-03-15T12:34:01.387Z,9.50
2023-03-15T12:36:39.555Z,9.71
2023-03-15T12:39:09.824Z,9.68
2023-03-15T12:41:39.196Z,9.71
2023-03-15T12:44:26.622Z,9.75
2023-03-15T12:46:54.619Z,9.67
2023-03-15T12:49:24.857Z,9.63
2023-03-15T12:51:58.848Z,9.64
2023-03-15T12:54:35.113Z,9.86
2023-03-15T12:57:03.870Z,10.21
2023-03-15T12:59:34.330Z,10.29
2023-03-15T13:02:02.116Z,9.99
2023-03-15T13:04:30.475Z,9.68
2023-03-15T13:07:14.032Z,9.73
2023-03-15T13:10:11.339Z,9.93
2023-03-15T13:12:45.734Z,9.82
2023-03-15T13:15:17.753Z,9.88
2023-03-15T13:17:47.644Z,9.75
2023-03-15T13:20:20.621Z,9.71
2023-03-15T13:23:06.411Z,9.72
2023-03-15T13:25:42.773Z,9.59
2023-03-15T13:28:19.654Z,9.46
2023-03-15T13:30:48.006Z,9.58
2023-03-15T13:33:21.767Z,9.71
2023-03-15T13:35:55.312Z,9.87
2023-03-15T13:38:25.290Z,9.92
2023-03-15T13:40:53.074Z,9.96
2023-03-15T13:43:20.194Z,9.98
2023-03-15T13:45:47.634Z,9.95
2023-03-15T13:48:14.537Z,9.70
2023-03-15T13:50:41.973Z,9.61
2023-03-15T13:53:13.842Z,9.61
2023-03-15T13:55:41.023Z,9.53
2023-03-15T13:58:08.788Z,10.00
2023-03-15T14:00:36.532Z,10.25
2023-03-15T14:03:08.678Z,10.39
2023-03-15T14:05:44.299Z,10.56
2023-03-15T14:08:17.174Z,10.51
2023-03-15T14:10:56.945Z,10.32
2023-03-15T14:13:25.206Z,10.23
2023-03-15T14:15:56.918Z,10.09
2023-03-15T14:18:29.819Z,10.11
2023-03-15T14:21:00.116Z,9.93
2023-03-15T14:23:28.075Z,9.81
2023-03-15T14:26:03.544Z,9.64
2023-03-15T14:28:31.530Z,9.47
2023-03-15T14:31:02.463Z,9.44
2023-03-15T14:33:34.137Z,9.44
2023-03-15T14:36:03.145Z,9.47
2023-03-15T14:38:35.405Z,9.50
2023-03-15T14:41:18.234Z,9.43
2023-03-15T14:43:45.188Z,9.53
2023-03-15T14:46:16.061Z,9.57
2023-03-15T14:48:43.210Z,9.55
2023-03-15T14:51:17.946Z,9.37
2023-03-15T14:53:49.190Z,9.23
2023-03-15T14:56:18.652Z,9.01
2023-03-15T14:58:49.583Z,9.01
2023-03-15T15:01:19.719Z,8.92
2023-03-15T15:03:48.322Z,8.84
2023-03-15T15:06:15.875Z,8.80
2023-03-15T15:08:47.568Z,8.78
2023-03-15T15:11:17.511Z,8.81
2023-03-15T15:13:44.544Z,8.82
2023-03-15T15:16:11.706Z,8.79
2023-03-15T15:18:38.908Z,8.87
2023-03-15T15:21:18.502Z,8.93
2023-03-15T15:23:57.811Z,8.91
2023-03-15T15:26:28.156Z,8.82
2023-03-15T15:28:55.389Z,8.78
2023-03-15T15:31:23.504Z,8.66
2023-03-15T15:33:54.229Z,8.50
2023-03-15T15:36:21.584Z,8.39
2023-03-15T15:38:48.612Z,8.33
2023-03-15T15:41:19.724Z,8.35
2023-03-15T15:43:49.158Z,8.32
2023-03-15T15:46:16.493Z,8.33
2023-03-15T15:48:44.034Z,8.36
2023-03-15T15:51:25.813Z,8.30
2023-03-15T15:53:55.069Z,8.27
2023-03-15T15:56:26.610Z,8.21
2023-03-15T15:58:54.024Z,8.23
2023-03-15T16:01:21.554Z,8.16
2023-03-15T16:03:52.064Z,8.12
2023-03-15T16:06:20.886Z,8.02
2023-03-15T16:08:49.461Z,7.91
2023-03-15T16:11:17.814Z,7.81
2023-03-15T16:13:46.067Z,7.73
2023-03-15T16:16:15.301Z,7.62
2023-03-15T16:18:42.958Z,7.58
2023-03-15T16:21:30.324Z,7.51
2023-03-15T16:24:00.381Z,7.47
2023-03-15T16:26:28.811Z,7.51
2023-03-15T16:28:56.263Z,7.47
2023-03-15T16:31:24.318Z,7.46
2023-03-15T16:33:52.135Z,7.44
2023-03-15T16:36:21.238Z,7.38
2023-03-15T16:38:49.651Z,7.26
2023-03-15T16:41:18.120Z,7.16
2023-03-15T16:43:49.243Z,7.18
2023-03-15T16:46:18.088Z,7.10
2023-03-15T16:48:48.360Z,7.06
2023-03-15T16:51:19.326Z,7.00
2023-03-15T16:53:49.449Z,6.93
2023-03-15T16:56:18.012Z,6.99
2023-03-15T16:58:48.870Z,7.05
2023-03-15T17:01:17.304Z,7.08
2023-03-15T17:03:46.303Z,7.07
2023-03-15T17:06:20.776Z,7.02
2023-03-15T17:08:49.246Z,6.94
2023-03-15T17:11:18.375Z,6.82
2023-03-15T17:13:46.218Z,6.77
2023-03-15T17:16:15.898Z,6.66
2023-03-15T17:18:46.644Z,6.62
2023-03-15T17:21:16.002Z,6.65
2023-03-15T17:23:45.412Z,6.70
2023-03-15T17:26:14.637Z,6.66
2023-03-15T17:28:44.497Z,6.61
2023-03-15T17:31:25.447Z,6.54
2023-03-15T17:33:56.884Z,6.44
2023-03-15T17:36:26.031Z,6.34
2023-03-15T17:38:54.446Z,6.30
2023-03-15T17:41:28.564Z,6.23
2023-03-15T17:43:56.428Z,6.21
2023-03-15T17:46:34.095Z,6.20
2023-03-15T17:49:03.472Z,6.14
2023-03-15T17:51:38.376Z,6.11
2023-03-15T17:54:12.693Z,6.10
2023-03-15T17:56:45.647Z,6.00
2023-03-15T17:59:14.050Z,5.95
2023-03-15T18:01:46.523Z,5.87
2023-03-15T18:04:14.798Z,5.82
2023-03-15T18:06:44.807Z,5.78
2023-03-15T18:09:13.545Z,5.75
2023-03-15T18:11:44.656Z,5.70
2023-03-15T18:14:16.371Z,5.71
2023-03-15T18:16:45.986Z,5.72
2023-03-15T18:19:15.070Z,5.72
2023-03-15T18:21:46.378Z,5.75
2023-03-15T18:24:14.201Z,5.77
2023-03-15T18:26:43.142Z,5.80
2023-03-15T18:29:12.033Z,5.77
2023-03-15T18:31:41.170Z,5.82
2023-03-15T18:34:12.865Z,5.80
2023-03-15T18:36:43.554Z,5.84
2023-03-15T18:39:11.254Z,5.82
2023-03-15T18:41:39.120Z,5.78
2023-03-15T18:44:10.546Z,5.73
2023-03-15T18:46:44.963Z,5.69
2023-03-15T18:49:15.289Z,5.69
2023-03-15T18:51:49.212Z,5.58
2023-03-15T18:54:17.413Z,5.49
2023-03-15T18:56:47.906Z,5.46
2023-03-15T18:59:16.474Z,5.43
2023-03-15T19:01:45.244Z,5.37
2023-03-15T19:04:13.447Z,5.31
2023-03-15T19:06:44.840Z,5.24
2023-03-15T19:09:13.078Z,5.16
2023-03-15T19:11:44.103Z,5.14
2023-03-15T19:14:13.595Z,5.04
2023-03-15T19:16:42.128Z,5.03
2023-03-15T19:19:09.816Z,4.99
2023-03-15T19:21:39.571Z,4.96
2023-03-15T19:24:09.345Z,4.95
2023-03-15T19:26:39.199Z,4.97
2023-03-15T19:29:09.548Z,4.94
2023-03-15T19:31:37.952Z,4.94
2023-03-15T19:34:07.543Z,4.96
2023-03-15T19:36:40.790Z,4.95
2023-03-15T19:39:12.346Z,5.01
2023-03-15T19:41:41.928Z,5.06
2023-03-15T19:44:10.646Z,5.12
2023-03-15T19:46:40.493Z,5.11
2023-03-15T19:49:09.360Z,5.05
2023-03-15T19:51:38.561Z,5.04
2023-03-15T19:54:07.382Z,5.02
2023-03-15T19:56:36.442Z,4.93
2023-03-15T19:59:07.977Z,4.95
2023-03-15T20:01:37.393Z,4.96
2023-03-15T20:04:06.029Z,4.95
2023-03-15T20:06:36.236Z,4.91
2023-03-15T20:09:07.826Z,4.83
2023-03-15T20:11:38.591Z,4.73
2023-03-15T20:14:06.912Z,4.62
2023-03-15T20:16:35.456Z,4.51
2023-03-15T20:19:03.656Z,4.40
2023-03-15T20:21:35.084Z,4.33
2023-03-15T20:24:08.435Z,4.27
2023-03-15T20:26:37.233Z,4.21
2023-03-15T20:29:05.751Z,4.19
2023-03-15T20:31:47.106Z,4.16
2023-03-15T20:34:16.603Z,4.07
2023-03-15T20:36:47.816Z,4.05
2023-03-15T20:39:19.201Z,4.00
2023-03-15T20:41:47.592Z,3.96
2023-03-15T20:44:16.405Z,3.95
2023-03-15T20:46:45.363Z,3.93
2023-03-15T20:49:14.896Z,3.92
2023-03-15T20:51:47.984Z,3.88
2023-03-15T20:54:17.687Z,3.82
2023-03-15T20:56:48.165Z,3.76
2023-03-15T20:59:17.832Z,3.72
2023-03-15T21:01:47.234Z,3.76
2023-03-15T21:04:15.573Z,3.74
2023-03-15T21:06:43.777Z,3.66
2023-03-15T21:09:12.407Z,3.59
2023-03-15T21:11:40.471Z,3.54
2023-03-15T21:14:08.545Z,3.46
2023-03-15T21:16:37.870Z,3.42
2023-03-15T21:19:07.357Z,3.33
2023-03-15T21:21:38.455Z,3.32
2023-03-15T21:24:07.946Z,3.33
2023-03-15T21:26:36.291Z,3.35
2023-03-15T21:29:04.150Z,3.36
2023-03-15T21:31:32.198Z,3.32
2023-03-15T21:33:59.705Z,3.30
2023-03-15T21:36:28.917Z,3.23
2023-03-15T21:38:56.437Z,3.26
2023-03-15T21:41:26.869Z,3.26
2023-03-15T21:43:59.480Z,3.29
2023-03-15T21:46:26.791Z,3.23
2023-03-15T21:48:54.503Z,3.23
2023-03-15T21:51:22.752Z,3.21
2023-03-15T21:53:50.552Z,3.19
2023-03-15T21:56:20.532Z,3.15
2023-03-15T21:58:47.830Z,3.15
2023-03-15T22:01:15.563Z,3.10
2023-03-15T22:03:44.518Z,3.06
2023-03-15T22:06:13.190Z,3.06
2023-03-15T22:08:43.169Z,3.08
2023-03-15T22:11:19.347Z,3.10
2023-03-15T22:13:46.580Z,3.05
2023-03-15T22:16:13.868Z,3.05
2023-03-15T22:18:41.053Z,3.01
2023-03-15T22:21:08.251Z,3.00
2023-03-15T22:23:35.227Z,2.97
2023-03-15T22:26:02.550Z,2.95
2023-03-15T22:28:29.514Z,2.89
2023-03-15T22:30:56.746Z,2.85
2023-03-15T22:33:28.522Z,2.83
2023-03-15T22:35:56.903Z,2.78
2023-03-15T22:38:24.460Z,2.74
2023-03-15T22:40:59.378Z,2.78
2023-03-15T22:43:26.336Z,2.76
2023-03-15T22:45:53.560Z,2.73
2023-03-15T22:48:21.085Z,2.73
2023-03-15T22:50:59.361Z,2.73
2023-03-15T22:53:26.583Z,2.71
2023-03-15T22:55:53.826Z,2.72
2023-03-15T22:58:20.824Z,2.71
2023-03-15T23:00:48.057Z,2.71
2023-03-15T23:03:15.450Z,2.69
2023-03-15T23:05:42.782Z,2.65
2023-03-15T23:08:11.710Z,2.67
2023-03-15T23:10:39.102Z,2.65
2023-03-15T23:13:06.564Z,2.61
2023-03-15T23:15:33.966Z,2.50
2023-03-15T23:18:01.865Z,2.42
2023-03-15T23:20:30.129Z,2.41
2023-03-15T23:22:57.616Z,2.39
2023-03-15T23:25:28.893Z,2.41
2023-03-15T23:27:55.894Z,2.37
2023-03-15T23:30:23.068Z,2.30
2023-03-15T23:32:52.063Z,2.30
2023-03-15T23:35:19.426Z,2.25
2023-03-15T23:37:46.313Z,2.20
2023-03-15T23:40:15.544Z,2.12
2023-03-15T23:42:43.598Z,2.14
2023-03-15T23:45:12.300Z,2.11
2023-03-15T23:47:40.165Z,2.04
2023-03-15T23:50:08.198Z,2.03
2023-03-15T23:52:35.469Z,2.07
2023-03-15T23:55:02.654Z,2.08
2023-03-15T23:57:29.543Z,2.05
2023-03-15T23:59:56.701Z,2.00
